Impacts TAF Board
For situational awareness. Not to be used for flight planning purposes.
IDs:

KPAE - Everett/Paine Fld, WA, US

Issued at 2333 UTC 27 Feb 2021
Updated at 0145 UTC 28 Feb 2021
Potential Impact None Slight Moderate High
Time0053Z 28/02Z 28/03Z 28/04Z 28/05Z 28/06Z 28/07Z 28/08Z 28/09Z 28/10Z 28/11Z 28/12Z 28/13Z 28/14Z>>
Type OBS PRVL PRVL PRVL PRVL PRVL PRVL PRVL PRVL PRVL PRVL PRVL PRVL PRVL
VIS 10 >6 >6 >6 >6 >6 >6 >6 >6 >6 >6 >6 >6 >6
CIG 90 50 50 30 30 30 20 20 20 20 20 20 20 20
Cover OVC OVC OVC OVC OVC OVC OVC OVC OVC OVC OVC OVC OVC OVC
FltCat VFR VFR VFR MVFR MVFR MVFR MVFR MVFR MVFR MVFR MVFR MVFR MVFR MVFR
WX -- -- -- -- -- -- -SHRA -SHRA -SHRA -SHRA -SHRA -SHRA -SHRA -SHRA
WDir 180 180 180 160 160 160 160 160 160 160 160 160 160 160
WSpd 8 6 6 6 6 6 8 8 8 8 8 8 8 8
WGst -- -- -- -- -- -- -- -- -- -- -- -- -- --
Raw TAF
KPAE 272333Z 2800/2824 18006KT P6SM SCT035 BKN050 OVC200
  FM280400 16006KT P6SM BKN030 OVC060
  FM280700 16008KT P6SM -SHRA OVC020
  FM281800 17007KT P6SM BKN015 OVC025


Raw METAR
KPAE 280053Z 18008KT 10SM OVC090 07/M01 A3026 RMK AO2 SLP252 T00721006
KPAE 272353Z 19008KT 10SM FEW038 BKN100 07/M02 A3027 RMK AO2 SLP254 T00721017 10078 20050 51001
KPAE 272253Z 20013KT 10SM SCT033 OVC047 07/M01 A3027 RMK AO2 SLP254 T00721006

METAR Board
Radar Display
Forecast Discussion
For situational awareness. Not to be used for flight planning purposes.